Time;durP1;ratioP1;P1;durP2;ratioP2;P2;SDS_P1;SDS_P2;PMS_P1;PMS_P2;Temp;Humidity;BMP_temperature;BMP_pressure;BME280_temperature;BME280_humidity;BME280_pressure;Samples;Min_cycle;Max_cycle;Signal;HPM_P1;HPM_P2
2023/07/03 00:01:08;;;;;;;1.17;0.40;;;;;;;21.57;100.00;94855.66;5073979;28;20481;-59
2023/07/03 00:03:38;;;;;;;0.80;0.80;;;;;;;21.51;100.00;94872.09;5073852;28;20876;-59
2023/07/03 00:06:08;;;;;;;0.40;0.30;;;;;;;21.36;100.00;94872.88;5073929;28;20437;-59
2023/07/03 00:08:37;;;;;;;0.50;0.30;;;;;;;20.97;100.00;94868.41;5073354;28;20453;-59
2023/07/03 00:11:06;;;;;;;1.17;0.47;;;;;;;20.97;100.00;94870.31;5073145;28;20480;-59
2023/07/03 00:13:34;;;;;;;0.50;0.30;;;;;;;21.21;100.00;94870.19;5073330;28;20480;-60
2023/07/03 00:16:05;;;;;;;0.50;0.40;;;;;;;21.32;100.00;94869.31;5073893;28;20467;-59
2023/07/03 00:18:33;;;;;;;0.83;0.83;;;;;;;21.21;100.00;94870.97;5073385;28;20445;-59
2023/07/03 00:21:02;;;;;;;0.60;0.60;;;;;;;21.28;100.00;94870.34;5073203;28;20841;-60
2023/07/03 00:23:32;;;;;;;0.60;0.47;;;;;;;21.30;100.00;94863.47;5073013;28;20968;-59
2023/07/03 00:26:00;;;;;;;0.60;0.40;;;;;;;20.98;100.00;94872.63;5073284;28;20491;-59
2023/07/03 00:28:28;;;;;;;1.40;0.50;;;;;;;20.65;100.00;94855.97;5073673;28;20433;-59
2023/07/03 00:30:57;;;;;;;0.40;0.30;;;;;;;20.60;100.00;94865.06;5073637;28;20563;-59
2023/07/03 00:33:25;;;;;;;0.90;0.50;;;;;;;20.84;100.00;94862.28;5073621;28;20491;-59
2023/07/03 00:35:53;;;;;;;2.10;0.90;;;;;;;20.96;100.00;94861.44;5073669;28;20507;-59
2023/07/03 00:38:22;;;;;;;1.50;0.90;;;;;;;21.18;100.00;94868.16;5073173;28;20989;-59
2023/07/03 00:40:51;;;;;;;0.43;0.40;;;;;;;20.63;100.00;94840.16;5072932;28;20469;-59
2023/07/03 00:43:21;;;;;;;1.33;0.63;;;;;;;20.75;100.00;94848.19;5072738;28;20470;-59
2023/07/03 00:45:50;;;;;;;0.53;0.50;;;;;;;20.91;100.00;94856.28;5073261;28;20977;-59
2023/07/03 00:48:19;;;;;;;0.77;0.53;;;;;;;21.02;100.00;94862.75;5072848;28;20472;-59
2023/07/03 00:50:47;;;;;;;1.07;0.37;;;;;;;21.16;100.00;94862.34;5073152;28;20473;-60
2023/07/03 00:53:15;;;;;;;0.53;0.53;;;;;;;20.98;100.00;94859.16;5072977;28;20924;-59
2023/07/03 00:55:44;;;;;;;0.47;0.30;;;;;;;21.13;100.00;94863.03;5072825;28;20452;-60
2023/07/03 00:58:13;;;;;;;0.60;0.43;;;;;;;21.17;100.00;94859.31;5072757;28;20485;-59
2023/07/03 01:00:49;;;;;;;0.67;0.33;;;;;;;21.14;100.00;94868.09;5072666;28;20441;-59
2023/07/03 01:03:25;;;;;;;0.50;0.33;;;;;;;21.21;100.00;94864.78;5072826;28;20449;-59
2023/07/03 01:05:55;;;;;;;0.40;0.20;;;;;;;20.86;100.00;94814.22;5072426;28;20459;-59
2023/07/03 01:08:25;;;;;;;2.40;0.60;;;;;;;21.15;100.00;94866.94;5061611;28;20444;-60
2023/07/03 01:10:55;;;;;;;0.40;0.30;;;;;;;20.88;100.00;94867.75;5070541;28;20527;-59
2023/07/03 01:13:29;;;;;;;0.50;0.40;;;;;;;20.92;100.00;94865.94;5072050;28;20438;-59
2023/07/03 01:15:58;;;;;;;2.73;0.50;;;;;;;20.97;100.00;94871.09;5072672;28;20433;-60
2023/07/03 01:18:28;;;;;;;4.20;0.70;;;;;;;20.84;100.00;94873.06;5072285;28;20446;-59
2023/07/03 01:21:03;;;;;;;0.70;0.60;;;;;;;20.89;100.00;94885.50;5072869;28;20433;-59
2023/07/03 01:23:37;;;;;;;0.50;0.30;;;;;;;20.92;100.00;94874.03;5072064;28;20441;-59
2023/07/03 01:26:09;;;;;;;0.60;0.50;;;;;;;20.85;100.00;94873.81;5072302;28;20470;-60
2023/07/03 01:28:40;;;;;;;1.17;0.40;;;;;;;20.90;100.00;94874.34;5072091;28;20433;-59
2023/07/03 01:31:08;;;;;;;3.87;0.30;;;;;;;20.99;100.00;94874.22;5072072;28;20549;-60
2023/07/03 01:33:40;;;;;;;3.17;0.77;;;;;;;20.97;100.00;94871.09;5072447;28;20753;-59
2023/07/03 01:36:12;;;;;;;0.60;0.47;;;;;;;21.04;100.00;94882.03;5072215;28;20438;-60
2023/07/03 01:38:44;;;;;;;0.60;0.60;;;;;;;20.92;100.00;94886.72;5072042;28;20461;-60
2023/07/03 01:41:17;;;;;;;0.70;0.40;;;;;;;20.94;100.00;94882.56;5071849;28;20442;-59
2023/07/03 01:43:46;;;;;;;0.40;0.30;;;;;;;20.87;100.00;94893.16;5071933;28;20438;-60
2023/07/03 01:46:16;;;;;;;0.50;0.50;;;;;;;20.68;100.00;94884.91;5071467;28;20436;-59
2023/07/03 01:48:44;;;;;;;1.13;1.03;;;;;;;20.57;100.00;94902.66;5071678;28;20437;-60
2023/07/03 01:51:20;;;;;;;0.60;0.60;;;;;;;20.74;100.00;94899.69;5071710;28;20473;-60
2023/07/03 01:53:54;;;;;;;0.80;0.40;;;;;;;20.12;100.00;94903.66;5071724;28;20503;-60
2023/07/03 01:56:30;;;;;;;0.77;0.77;;;;;;;19.68;100.00;94896.53;5071543;28;20819;-60
2023/07/03 01:59:04;;;;;;;1.20;1.10;;;;;;;19.44;100.00;94908.03;5071155;28;20808;-59
2023/07/03 02:01:42;;;;;;;1.20;0.80;;;;;;;19.26;100.00;94913.91;5045945;28;20465;-60
2023/07/03 02:04:20;;;;;;;0.70;0.70;;;;;;;19.17;100.00;94913.22;5071422;28;20441;-59
2023/07/03 02:06:49;;;;;;;1.33;1.23;;;;;;;19.19;100.00;94916.38;5071374;28;20440;-60
2023/07/03 02:09:17;;;;;;;0.70;0.53;;;;;;;19.08;100.00;94917.91;5071323;28;20492;-60
2023/07/03 02:11:48;;;;;;;1.07;0.93;;;;;;;19.20;100.00;94926.78;5071643;28;20473;-60
2023/07/03 02:14:17;;;;;;;0.80;0.60;;;;;;;19.06;100.00;94925.50;5071429;28;20997;-61
2023/07/03 02:16:47;;;;;;;0.70;0.57;;;;;;;19.01;100.00;94919.25;5071800;28;20437;-60
2023/07/03 02:19:16;;;;;;;7.00;1.20;;;;;;;18.81;100.00;94897.78;5071138;28;20445;-60
2023/07/03 02:21:45;;;;;;;1.20;0.77;;;;;;;19.32;100.00;94899.94;5071495;28;20515;-60
2023/07/03 02:24:13;;;;;;;3.93;0.90;;;;;;;19.36;100.00;94932.28;5057915;28;20931;-60
2023/07/03 02:26:42;;;;;;;0.70;0.50;;;;;;;19.25;100.00;94921.19;5071135;28;20441;-59
2023/07/03 02:29:12;;;;;;;1.13;0.60;;;;;;;19.62;100.00;94935.50;5071533;28;20429;-60
2023/07/03 02:31:40;;;;;;;0.70;0.60;;;;;;;19.42;100.00;94939.06;5070705;28;20586;-60
2023/07/03 02:34:09;;;;;;;0.70;0.50;;;;;;;19.52;100.00;94944.00;5075246;28;20445;-60
2023/07/03 02:36:38;;;;;;;0.67;0.40;;;;;;;19.63;100.00;94943.22;5077376;28;20445;-60
2023/07/03 02:39:09;;;;;;;0.47;0.37;;;;;;;19.96;100.00;94945.03;5077828;28;21159;-60
2023/07/03 02:41:37;;;;;;;0.90;0.77;;;;;;;19.99;100.00;94945.13;5077770;28;20433;-61
2023/07/03 02:44:06;;;;;;;0.97;0.50;;;;;;;19.92;100.00;94953.00;5077720;28;20452;-61
2023/07/03 02:46:35;;;;;;;1.20;1.10;;;;;;;19.76;100.00;94959.38;5077205;28;20532;-61
2023/07/03 02:49:04;;;;;;;0.60;0.43;;;;;;;19.81;100.00;94968.00;5077738;28;20437;-61
2023/07/03 02:51:32;;;;;;;0.60;0.40;;;;;;;20.07;100.00;94965.75;5077557;28;20530;-60
2023/07/03 02:54:00;;;;;;;0.50;0.30;;;;;;;20.05;100.00;94968.00;5078092;28;20828;-61
2023/07/03 02:56:29;;;;;;;0.40;0.30;;;;;;;19.78;100.00;94971.38;5077778;28;20801;-60
2023/07/03 02:58:57;;;;;;;0.97;0.73;;;;;;;19.43;100.00;94968.28;5077544;28;20895;-61
2023/07/03 03:01:25;;;;;;;6.00;1.00;;;;;;;19.28;100.00;94970.78;5063975;28;20441;-60
2023/07/03 03:03:58;;;;;;;1.33;1.13;;;;;;;19.43;100.00;94976.34;5077604;28;20445;-61
2023/07/03 03:06:27;;;;;;;0.50;0.43;;;;;;;19.85;100.00;94974.28;5065260;28;20445;-60
2023/07/03 03:08:55;;;;;;;1.30;0.50;;;;;;;20.03;100.00;94975.66;5076748;28;20531;-64
2023/07/03 03:11:23;;;;;;;0.50;0.40;;;;;;;20.09;100.00;94970.78;5077716;28;20495;-60
2023/07/03 03:13:52;;;;;;;0.50;0.30;;;;;;;19.96;100.00;94978.09;5077281;28;20505;-61
2023/07/03 03:16:20;;;;;;;0.70;0.40;;;;;;;20.09;100.00;94971.59;5077599;28;20468;-61
2023/07/03 03:18:50;;;;;;;0.40;0.30;;;;;;;20.25;100.00;94975.22;5077278;28;20445;-60
2023/07/03 03:21:20;;;;;;;0.50;0.30;;;;;;;19.32;100.00;94818.53;5077383;28;20803;-60
2023/07/03 03:23:50;;;;;;;1.30;0.70;;;;;;;19.55;100.00;94980.97;5077222;28;20540;-60
2023/07/03 03:26:19;;;;;;;0.80;0.77;;;;;;;19.48;100.00;94973.44;5077740;28;20502;-60
2023/07/03 03:28:47;;;;;;;1.90;1.80;;;;;;;19.21;100.00;94982.09;5077428;28;20433;-60
2023/07/03 03:31:15;;;;;;;0.73;0.73;;;;;;;19.41;100.00;94978.59;5077395;28;20469;-60
2023/07/03 03:33:44;;;;;;;2.03;0.60;;;;;;;19.22;100.00;94966.75;5077427;28;20461;-60
2023/07/03 03:36:12;;;;;;;0.77;0.67;;;;;;;19.30;100.00;94980.09;5077666;28;20441;-60
2023/07/03 03:38:42;;;;;;;0.90;0.60;;;;;;;19.12;100.00;94975.22;5077090;28;20463;-60
2023/07/03 03:41:10;;;;;;;0.60;0.60;;;;;;;19.24;100.00;94978.75;5077527;28;20465;-60
2023/07/03 03:43:38;;;;;;;0.90;0.90;;;;;;;18.93;100.00;94973.81;5077390;28;20441;-60
2023/07/03 03:46:08;;;;;;;0.80;0.80;;;;;;;18.75;100.00;94956.28;5073634;28;20442;-58
2023/07/03 03:48:36;;;;;;;1.03;0.60;;;;;;;19.50;100.00;94990.03;5074238;28;20473;-59
2023/07/03 03:51:05;;;;;;;1.33;1.23;;;;;;;19.72;100.00;94985.34;5074095;28;20438;-59
2023/07/03 03:53:33;;;;;;;0.50;0.40;;;;;;;19.54;100.00;94982.88;5074027;28;20441;-59
2023/07/03 03:56:03;;;;;;;1.23;1.23;;;;;;;19.35;100.00;94985.28;5073920;28;20852;-59
2023/07/03 03:58:32;;;;;;;0.77;0.73;;;;;;;19.31;100.00;94991.63;5074521;28;20441;-59
2023/07/03 04:01:02;;;;;;;0.50;0.40;;;;;;;19.41;100.00;94993.91;5074202;28;20515;-59
2023/07/03 04:03:30;;;;;;;0.80;0.50;;;;;;;19.38;100.00;94981.16;5073471;28;20476;-59
2023/07/03 04:05:58;;;;;;;0.90;0.67;;;;;;;19.40;100.00;94992.38;5060469;28;20441;-59
2023/07/03 04:08:27;;;;;;;1.47;1.37;;;;;;;19.47;100.00;94995.28;5073831;28;20926;-59
2023/07/03 04:10:55;;;;;;;1.23;0.93;;;;;;;19.61;100.00;94993.84;5073516;28;20437;-58
2023/07/03 04:13:25;;;;;;;2.10;0.50;;;;;;;19.87;100.00;95000.84;5073440;28;20953;-58
2023/07/03 04:16:01;;;;;;;1.63;0.83;;;;;;;19.89;100.00;94998.59;5072793;28;20798;-58
2023/07/03 04:18:31;;;;;;;1.23;1.23;;;;;;;20.09;100.00;94993.13;5073530;28;20448;-58
2023/07/03 04:21:00;;;;;;;0.70;0.70;;;;;;;20.17;100.00;94994.13;5073429;28;20956;-57
2023/07/03 04:23:29;;;;;;;1.63;0.50;;;;;;;20.18;100.00;94999.19;5072841;28;20549;-57
2023/07/03 04:25:59;;;;;;;1.70;0.77;;;;;;;20.51;100.00;95004.44;5073739;28;20433;-57
2023/07/03 04:28:28;;;;;;;2.40;0.80;;;;;;;20.47;100.00;95003.53;5073207;28;20437;-57
2023/07/03 04:30:57;;;;;;;0.50;0.43;;;;;;;20.81;100.00;95002.25;5073730;28;20434;-58
2023/07/03 04:33:25;;;;;;;0.80;0.80;;;;;;;20.46;100.00;95006.59;5073316;28;20516;-57
2023/07/03 04:35:53;;;;;;;0.93;0.40;;;;;;;20.73;100.00;95006.66;5073263;28;20434;-57
2023/07/03 04:38:23;;;;;;;1.03;1.03;;;;;;;20.79;100.00;95009.88;5073390;28;20491;-57
2023/07/03 04:40:53;;;;;;;0.70;0.70;;;;;;;20.94;100.00;95013.78;5073560;28;20437;-57
2023/07/03 04:43:22;;;;;;;0.47;0.37;;;;;;;21.00;100.00;95010.47;5072702;28;20820;-57
2023/07/03 04:45:55;;;;;;;0.83;0.60;;;;;;;21.10;100.00;95017.34;5073062;28;20441;-57
2023/07/03 04:48:24;;;;;;;0.90;0.90;;;;;;;21.11;100.00;95003.53;5072724;28;20968;-56
2023/07/03 04:50:53;;;;;;;0.80;0.73;;;;;;;21.56;100.00;95016.69;5073081;28;20449;-57
2023/07/03 04:53:23;;;;;;;1.97;0.80;;;;;;;21.29;100.00;95017.50;5072832;28;21019;-57
2023/07/03 04:55:52;;;;;;;1.03;1.03;;;;;;;20.92;100.00;95018.72;5072879;28;20441;-57
2023/07/03 04:58:21;;;;;;;0.60;0.40;;;;;;;20.65;100.00;95028.31;5073307;28;20527;-57
2023/07/03 05:00:51;;;;;;;1.03;0.93;;;;;;;21.12;100.00;95020.47;5073133;28;20448;-58
2023/07/03 05:03:19;;;;;;;6.07;1.10;;;;;;;20.94;100.00;95027.25;5073025;28;21005;-57
2023/07/03 05:05:48;;;;;;;1.20;1.07;;;;;;;20.71;100.00;95026.97;5072929;28;20441;-57
2023/07/03 05:08:17;;;;;;;4.83;2.50;;;;;;;21.17;100.00;95025.63;5073007;28;20525;-57
2023/07/03 05:10:45;;;;;;;1.50;1.40;;;;;;;20.92;100.00;95027.59;5073141;28;20446;-49
2023/07/03 05:13:13;;;;;;;1.80;1.70;;;;;;;20.83;100.00;95026.94;5072895;28;20481;-52
2023/07/03 05:15:42;;;;;;;2.23;2.00;;;;;;;20.70;100.00;95033.47;5072271;28;20475;-52
2023/07/03 05:18:12;;;;;;;2.90;2.70;;;;;;;20.88;100.00;95034.78;5072563;28;20441;-52
2023/07/03 05:20:42;;;;;;;2.13;1.20;;;;;;;20.67;100.00;95034.16;5072103;28;20438;-52
2023/07/03 05:23:13;;;;;;;1.53;1.40;;;;;;;20.54;100.00;95035.31;5072777;28;20476;-53
2023/07/03 05:25:42;;;;;;;2.30;1.23;;;;;;;21.02;100.00;95037.91;5072685;28;20820;-53
2023/07/03 05:28:10;;;;;;;0.90;0.90;;;;;;;21.47;100.00;95041.13;5072333;28;20445;-51
2023/07/03 05:30:39;;;;;;;0.87;0.87;;;;;;;21.91;100.00;95038.41;5072402;28;20442;-52
2023/07/03 05:33:07;;;;;;;5.50;1.37;;;;;;;21.33;100.00;95004.88;5072200;28;20487;-52
2023/07/03 05:35:37;;;;;;;1.17;1.07;;;;;;;21.58;100.00;95044.06;5072391;28;20511;-52
2023/07/03 05:38:17;;;;;;;1.00;1.00;;;;;;;21.85;100.00;95045.19;5071987;28;20437;-52
2023/07/03 05:40:49;;;;;;;1.30;1.20;;;;;;;22.67;100.00;95027.94;5072449;28;20446;-53
2023/07/03 05:43:17;;;;;;;2.80;1.20;;;;;;;23.01;100.00;95036.38;5071420;28;20856;-53
2023/07/03 05:45:48;;;;;;;1.20;1.10;;;;;;;22.24;100.00;94976.00;5071903;28;20476;-52
2023/07/03 05:48:17;;;;;;;6.33;1.23;;;;;;;22.33;100.00;95047.56;5071699;28;20546;-54
2023/07/03 05:50:47;;;;;;;2.80;2.57;;;;;;;22.18;100.00;95048.38;5072295;28;20442;-53
2023/07/03 05:53:15;;;;;;;1.00;1.00;;;;;;;22.37;100.00;95039.53;5071762;28;20505;-53
2023/07/03 05:55:44;;;;;;;1.57;1.03;;;;;;;22.87;100.00;95036.09;5071884;28;20450;-53
2023/07/03 05:58:12;;;;;;;0.57;0.57;;;;;;;22.91;100.00;95037.72;5072018;28;20528;-53
2023/07/03 06:00:41;;;;;;;2.50;1.60;;;;;;;23.56;100.00;95035.97;5072021;28;20528;-54
2023/07/03 06:03:11;;;;;;;1.07;1.07;;;;;;;23.47;100.00;95034.63;5071982;28;20441;-55
2023/07/03 06:05:39;;;;;;;4.00;1.73;;;;;;;22.79;100.00;95037.06;5071442;28;20433;-54
2023/07/03 06:08:09;;;;;;;1.20;0.77;;;;;;;23.00;100.00;95016.66;5071242;28;20437;-54
2023/07/03 06:10:38;;;;;;;0.77;0.77;;;;;;;23.44;100.00;95036.13;5071382;28;20494;-55
2023/07/03 06:13:06;;;;;;;1.00;0.90;;;;;;;23.58;100.00;95019.41;5072020;28;20557;-55
2023/07/03 06:15:35;;;;;;;1.30;1.20;;;;;;;23.71;95.92;95015.38;5071115;28;20513;-54
2023/07/03 06:18:03;;;;;;;4.10;1.60;;;;;;;24.18;91.75;95028.59;5071698;28;20477;-54
2023/07/03 06:20:33;;;;;;;1.67;1.57;;;;;;;24.45;93.56;95033.69;5071300;28;20444;-54
2023/07/03 06:23:01;;;;;;;1.73;1.23;;;;;;;24.29;88.80;95024.91;5071758;28;20442;-54
2023/07/03 06:25:31;;;;;;;1.17;1.07;;;;;;;24.59;87.37;95022.28;5071133;28;20468;-55
2023/07/03 06:28:00;;;;;;;4.97;1.13;;;;;;;25.57;85.73;95030.97;5071908;28;20434;-55
2023/07/03 06:30:28;;;;;;;1.37;1.27;;;;;;;25.29;82.48;95027.13;5071359;28;20976;-55
2023/07/03 06:32:56;;;;;;;1.10;0.50;;;;;;;25.91;80.34;95026.28;5071095;28;20472;-55
2023/07/03 06:35:25;;;;;;;0.60;0.50;;;;;;;25.37;82.45;95012.50;5071613;28;20446;-55
2023/07/03 06:37:55;;;;;;;0.60;0.57;;;;;;;26.07;81.80;95024.09;5070793;28;20874;-55
2023/07/03 06:40:24;;;;;;;0.70;0.70;;;;;;;25.58;78.80;95034.44;5071822;28;20463;-55
2023/07/03 06:42:54;;;;;;;0.60;0.60;;;;;;;25.80;78.73;95028.91;5071190;28;20885;-56
2023/07/03 06:45:22;;;;;;;6.33;1.60;;;;;;;25.63;79.98;95037.63;5071092;28;20441;-56
2023/07/03 06:47:51;;;;;;;1.23;0.90;;;;;;;26.01;79.08;95028.31;5071402;28;20531;-55
2023/07/03 06:50:20;;;;;;;1.37;1.27;;;;;;;26.38;77.24;95018.19;5070953;28;20441;-55
2023/07/03 06:52:48;;;;;;;2.00;1.90;;;;;;;25.75;78.15;95031.16;5070663;28;20441;-55
2023/07/03 06:55:17;;;;;;;2.40;2.20;;;;;;;25.64;77.69;95027.56;5071377;28;20437;-55
2023/07/03 06:57:45;;;;;;;1.57;1.47;;;;;;;26.27;77.93;95022.75;5071076;28;20489;-55
2023/07/03 07:00:16;;;;;;;6.30;3.97;;;;;;;26.72;73.81;95028.91;5071425;28;20476;-55
2023/07/03 07:02:44;;;;;;;3.23;0.83;;;;;;;25.77;75.00;95002.50;5070630;28;20445;-55
2023/07/03 07:05:12;;;;;;;1.30;0.90;;;;;;;26.44;73.43;95019.38;5071216;28;20468;-55
2023/07/03 07:07:41;;;;;;;1.97;1.80;;;;;;;26.86;72.65;95015.44;5070900;28;20434;-55
2023/07/03 07:10:09;;;;;;;1.30;1.10;;;;;;;26.70;72.13;95018.41;5070965;28;20470;-55
2023/07/03 07:12:38;;;;;;;1.03;1.03;;;;;;;26.88;70.46;95021.25;5071285;28;20437;-55
2023/07/03 07:15:07;;;;;;;1.33;1.00;;;;;;;27.15;70.04;95011.69;5071034;28;20488;-56
2023/07/03 07:17:37;;;;;;;2.10;0.60;;;;;;;27.32;67.73;95008.28;5070798;28;20443;-57
2023/07/03 07:20:19;;;;;;;0.60;0.53;;;;;;;28.07;66.08;95001.91;5072720;28;20452;-56
2023/07/03 07:22:48;;;;;;;0.77;0.77;;;;;;;28.31;63.88;95017.47;5074733;28;20438;-57
2023/07/03 07:25:17;;;;;;;1.23;1.13;;;;;;;28.90;63.78;95004.19;5074484;28;20941;-55
2023/07/03 07:27:45;;;;;;;1.80;0.90;;;;;;;27.89;63.75;95011.97;5074754;28;20444;-56
2023/07/03 07:30:14;;;;;;;2.77;1.57;;;;;;;27.24;65.36;95011.34;5074483;28;20433;-56
2023/07/03 07:32:44;;;;;;;1.40;1.30;;;;;;;27.66;64.41;95012.31;5074575;28;20433;-55
2023/07/03 07:35:12;;;;;;;0.70;0.70;;;;;;;28.71;62.47;95015.53;5073418;28;20481;-55
2023/07/03 07:37:41;;;;;;;0.57;0.30;;;;;;;28.98;63.14;95010.41;5074662;28;20936;-55
2023/07/03 07:40:10;;;;;;;1.10;0.73;;;;;;;28.75;61.38;95011.63;5074328;28;20434;-55
2023/07/03 07:42:39;;;;;;;0.73;0.70;;;;;;;29.16;59.49;95011.94;5074100;28;20442;-55
2023/07/03 07:45:08;;;;;;;6.03;0.90;;;;;;;28.93;60.09;95009.66;5074380;28;20464;-56
2023/07/03 07:47:36;;;;;;;0.73;0.73;;;;;;;29.11;61.54;95008.81;5074009;28;20448;-56
2023/07/03 07:50:07;;;;;;;0.87;0.87;;;;;;;29.12;59.06;95004.94;5074362;28;20460;-53
2023/07/03 07:52:36;;;;;;;0.40;0.40;;;;;;;29.61;59.05;95012.94;5073518;28;20851;-56
2023/07/03 07:55:05;;;;;;;1.13;0.80;;;;;;;28.70;60.48;95009.31;5074566;28;20534;-56
2023/07/03 07:57:34;;;;;;;1.27;0.97;;;;;;;28.90;58.90;95015.09;5060530;28;20496;-55
2023/07/03 08:00:03;;;;;;;1.10;1.10;;;;;;;29.12;58.53;94994.00;5073804;28;20437;-55
2023/07/03 08:02:31;;;;;;;1.20;1.10;;;;;;;30.20;58.70;95013.78;5074002;28;20464;-55
2023/07/03 08:05:00;;;;;;;1.10;1.00;;;;;;;30.22;56.92;95010.63;5073872;28;20523;-55
2023/07/03 08:07:30;;;;;;;2.10;1.37;;;;;;;30.56;56.40;95012.31;5073830;28;22183;-55
2023/07/03 08:09:58;;;;;;;0.50;0.50;;;;;;;30.69;56.57;95012.59;5074105;28;20512;-55
2023/07/03 08:12:26;;;;;;;2.83;0.73;;;;;;;30.49;54.63;95012.38;5073850;28;20498;-55
2023/07/03 08:14:55;;;;;;;1.93;1.80;;;;;;;30.39;54.32;95010.53;5073495;28;21145;-55
2023/07/03 08:17:23;;;;;;;0.63;0.60;;;;;;;29.82;55.29;94966.41;5072851;28;20444;-56
2023/07/03 08:19:51;;;;;;;0.57;0.47;;;;;;;30.59;55.65;95014.25;5073227;28;20449;-55
2023/07/03 08:22:20;;;;;;;1.17;0.83;;;;;;;30.89;55.75;95010.09;5073697;28;20967;-55
2023/07/03 08:24:49;;;;;;;0.93;0.90;;;;;;;30.64;54.79;95013.81;5073780;28;20475;-56
2023/07/03 08:27:18;;;;;;;0.67;0.67;;;;;;;30.75;53.55;94986.34;5073518;28;20433;-54
2023/07/03 08:29:47;;;;;;;0.40;0.40;;;;;;;31.08;53.69;95013.03;5073529;28;20817;-53
2023/07/03 08:32:15;;;;;;;0.87;0.87;;;;;;;31.33;52.67;95008.03;5073103;28;20933;-53
2023/07/03 08:34:44;;;;;;;0.83;0.60;;;;;;;31.66;50.65;95002.97;5073972;28;20551;-53
2023/07/03 08:37:32;;;;;;;1.07;1.07;;;;;;;31.17;53.35;95007.84;5073323;28;20872;-53
2023/07/03 08:40:05;;;;;;;2.00;1.50;;;;;;;30.60;51.55;95004.09;5072985;28;20433;-53
2023/07/03 08:42:36;;;;;;;1.37;1.23;;;;;;;30.22;52.61;95005.16;5073225;28;20436;-53
2023/07/03 08:45:08;;;;;;;1.00;0.83;;;;;;;31.33;50.97;95001.78;5073168;28;20488;-52
2023/07/03 08:47:37;;;;;;;0.90;0.90;;;;;;;32.17;50.71;94991.69;5073422;28;20437;-53
2023/07/03 08:50:07;;;;;;;2.90;0.70;;;;;;;32.54;48.35;94991.50;5047078;28;20433;-53
2023/07/03 08:52:42;;;;;;;1.43;1.33;;;;;;;31.37;49.00;94997.81;5073132;28;20441;-53
2023/07/03 08:55:17;;;;;;;2.53;1.37;;;;;;;31.47;49.29;95003.63;5073001;28;20487;-52
2023/07/03 08:57:45;;;;;;;1.23;1.13;;;;;;;31.51;49.16;94990.63;5072671;28;20440;-54
2023/07/03 09:00:15;;;;;;;0.47;0.33;;;;;;;32.97;48.05;94985.25;5073412;28;20593;-53
2023/07/03 09:02:50;;;;;;;0.57;0.50;;;;;;;33.04;46.93;94991.41;5072911;28;20475;-54
2023/07/03 09:05:30;;;;;;;1.10;0.83;;;;;;;31.89;46.82;94994.81;5073127;28;20437;-53
2023/07/03 09:08:03;;;;;;;1.10;0.97;;;;;;;32.34;47.67;94993.38;5047401;28;21014;-53
2023/07/03 09:10:39;;;;;;;0.97;0.60;;;;;;;32.85;46.68;94983.13;5072721;28;20439;-53
2023/07/03 09:13:14;;;;;;;0.53;0.40;;;;;;;32.91;48.94;94978.69;5072929;28;20441;-53
2023/07/03 09:15:47;;;;;;;0.70;0.70;;;;;;;32.76;44.48;94980.16;5072287;28;20522;-56
2023/07/03 09:18:21;;;;;;;0.53;0.53;;;;;;;32.27;45.01;94988.00;5072636;28;20441;-54
2023/07/03 09:20:50;;;;;;;1.13;1.13;;;;;;;32.82;44.04;94983.94;5072236;28;20441;-54
2023/07/03 09:23:22;;;;;;;3.07;0.60;;;;;;;32.85;44.08;94972.13;5072186;28;20536;-54
2023/07/03 09:25:58;;;;;;;1.70;0.83;;;;;;;32.37;44.32;94983.53;5047286;28;20445;-54
2023/07/03 09:28:36;;;;;;;1.23;0.57;;;;;;;33.17;43.29;94977.81;5072044;28;20445;-54
2023/07/03 09:31:05;;;;;;;0.53;0.40;;;;;;;33.72;42.37;94986.16;5072104;28;21014;-53
2023/07/03 09:33:34;;;;;;;0.70;0.70;;;;;;;33.50;42.17;94982.25;5072432;28;20448;-53
2023/07/03 09:36:04;;;;;;;1.40;1.00;;;;;;;32.39;42.34;94987.41;5072382;28;20534;-57
2023/07/03 09:38:36;;;;;;;0.60;0.60;;;;;;;32.98;42.26;94973.06;5071983;28;20441;-56
2023/07/03 09:41:05;;;;;;;0.50;0.40;;;;;;;34.08;40.26;94975.13;5072094;28;20921;-55
2023/07/03 09:43:43;;;;;;;0.77;0.43;;;;;;;34.33;42.51;94972.56;5071097;28;20515;-56
2023/07/03 09:46:14;;;;;;;4.80;0.70;;;;;;;33.81;40.82;94969.03;5072393;28;20447;-56
2023/07/03 09:48:43;;;;;;;0.47;0.47;;;;;;;34.72;40.63;94974.38;5072002;28;20448;-55
2023/07/03 09:51:24;;;;;;;0.77;0.40;;;;;;;34.61;39.89;94973.09;5071551;28;20469;-55
2023/07/03 09:53:53;;;;;;;0.40;0.40;;;;;;;34.80;39.16;94970.22;5072247;28;20436;-60
2023/07/03 09:56:25;;;;;;;3.27;0.40;;;;;;;34.39;39.55;94968.09;5071524;28;20468;-56
2023/07/03 09:58:59;;;;;;;4.23;0.63;;;;;;;34.25;39.25;94964.91;5072009;28;20667;-54
2023/07/03 10:01:30;;;;;;;0.80;0.67;;;;;;;33.47;39.60;94963.84;5046113;28;20448;-55
2023/07/03 10:04:07;;;;;;;0.63;0.60;;;;;;;33.29;40.84;94962.69;5072213;28;20202;-55
2023/07/03 10:06:39;;;;;;;0.80;0.77;;;;;;;33.19;39.33;94958.97;5071937;28;20742;-55
2023/07/03 10:09:18;;;;;;;0.90;0.50;;;;;;;33.21;39.79;94912.63;5071915;28;20274;-56
2023/07/03 10:11:58;;;;;;;1.10;1.00;;;;;;;33.84;38.00;94963.47;5072246;28;20751;-56
2023/07/03 10:14:30;;;;;;;0.70;0.63;;;;;;;33.42;39.28;94955.34;5047200;28;20257;-56
2023/07/03 10:17:02;;;;;;;1.67;1.00;;;;;;;33.13;38.62;94966.91;5071347;28;20198;-56
2023/07/03 10:19:31;;;;;;;0.83;0.83;;;;;;;33.71;38.92;94959.84;5071733;28;20190;-56
2023/07/03 10:21:59;;;;;;;1.50;0.90;;;;;;;33.88;40.26;94963.38;5070479;28;20433;-57
2023/07/03 10:24:28;;;;;;;1.20;1.20;;;;;;;33.73;39.34;94962.94;5071457;28;20288;-57
2023/07/03 10:27:01;;;;;;;0.60;0.60;;;;;;;34.81;38.86;94962.75;5071195;28;20756;-55
2023/07/03 10:29:37;;;;;;;2.10;1.10;;;;;;;34.23;38.80;94961.84;5070892;28;20206;-55
2023/07/03 10:32:11;;;;;;;0.97;0.70;;;;;;;34.58;39.57;94960.97;5071104;28;20186;-55
2023/07/03 10:34:45;;;;;;;0.43;0.43;;;;;;;35.74;37.15;94953.47;5071593;28;20193;-57
2023/07/03 10:37:17;;;;;;;0.63;0.63;;;;;;;35.07;36.62;94939.63;5071516;28;20193;-55
2023/07/03 10:39:53;;;;;;;0.87;0.80;;;;;;;33.77;37.57;94955.41;5071659;28;20590;-56
2023/07/03 10:42:28;;;;;;;0.40;0.40;;;;;;;34.17;38.54;94955.28;5071636;28;20570;-61
2023/07/03 10:45:02;;;;;;;0.70;0.50;;;;;;;34.98;35.88;94923.72;5071237;28;20194;-63
2023/07/03 10:47:38;;;;;;;0.80;0.60;;;;;;;34.17;37.09;94898.28;5071524;28;20647;-62
2023/07/03 10:50:09;;;;;;;0.90;0.73;;;;;;;35.07;36.10;94940.41;5071750;28;20225;-62
2023/07/03 10:52:47;;;;;;;1.42;1.00;;;;;;;34.91;36.23;94940.44;5071047;28;20278;-63
2023/07/03 10:55:23;;;;;;;0.80;0.80;;;;;;;34.53;36.81;94936.69;5073930;28;20210;-64
2023/07/03 10:58:02;;;;;;;0.30;0.30;;;;;;;34.46;34.76;94945.13;5075855;28;20209;-62
2023/07/03 11:00:35;;;;;;;1.20;0.63;;;;;;;34.09;34.03;94883.16;5075266;28;20209;-64
2023/07/03 11:03:16;;;;;;;0.80;0.47;;;;;;;35.98;33.50;94930.63;5075355;28;20194;-61
2023/07/03 11:05:48;;;;;;;0.65;0.60;;;;;;;36.37;35.53;94928.63;5075346;28;20300;-61
2023/07/03 11:08:21;;;;;;;1.00;0.70;;;;;;;35.46;34.52;94935.75;5075371;28;20270;-62
2023/07/03 11:10:57;;;;;;;2.78;1.33;;;;;;;34.61;35.92;94934.56;5061421;28;20229;-62
2023/07/03 11:13:33;;;;;;;0.57;0.50;;;;;;;34.67;36.01;94933.59;5074666;28;20224;-61
2023/07/03 11:16:12;;;;;;;0.87;0.87;;;;;;;35.25;35.84;94934.38;5049093;28;20297;-60
2023/07/03 11:18:56;;;;;;;0.50;0.35;;;;;;;35.74;34.55;94923.13;5075434;28;20574;-62
2023/07/03 11:21:37;;;;;;;1.42;1.33;;;;;;;36.70;31.80;94922.38;5074871;28;20241;-61
2023/07/03 11:24:17;;;;;;;0.80;0.50;;;;;;;36.40;34.61;94925.75;5075293;28;20278;-62
2023/07/03 11:26:52;;;;;;;0.50;0.30;;;;;;;36.72;32.87;94925.47;5074717;28;20202;-61
2023/07/03 11:29:25;;;;;;;0.93;0.55;;;;;;;35.93;34.37;94922.91;5074572;28;20273;-62
2023/07/03 11:31:55;;;;;;;0.57;0.57;;;;;;;35.23;32.52;94931.31;5074410;28;20194;-63
2023/07/03 11:34:26;;;;;;;0.73;0.40;;;;;;;35.24;33.91;94926.56;5075157;28;20206;-63
2023/07/03 11:36:58;;;;;;;0.30;0.30;;;;;;;34.64;36.00;94939.97;5074567;28;20272;-62
2023/07/03 11:39:33;;;;;;;0.70;0.40;;;;;;;33.38;37.81;94927.16;5074393;28;20255;-62
2023/07/03 11:42:13;;;;;;;0.80;0.40;;;;;;;33.58;37.66;94927.94;5074996;28;20206;-62
2023/07/03 11:44:49;;;;;;;0.60;0.50;;;;;;;32.56;38.49;94931.47;5074615;28;20653;-63